Time;durP1;ratioP1;P1;durP2;ratioP2;P2;SDS_P1;SDS_P2;PMS_P1;PMS_P2;Temp;Humidity;BMP_temperature;BMP_pressure;BME280_temperature;BME280_humidity;BME280_pressure;Samples;Min_cycle;Max_cycle;Signal;HPM_P1;HPM_P2
2021/08/01 00:00:27;;;;;;;1.97;1.63;;;;;;;;;;4528857;28;20438;-63
2021/08/01 00:02:39;;;;;;;1.40;1.30;;;;;;;;;;4530361;28;20033;-63
2021/08/01 00:04:49;;;;;;;1.92;1.55;;;;;;;;;;4529501;28;20041;-63
2021/08/01 00:07:00;;;;;;;1.47;1.30;;;;;;;;;;4529261;28;20430;-63
2021/08/01 00:09:10;;;;;;;1.50;1.40;;;;;;;;;;4528807;28;20095;-63
2021/08/01 00:11:21;;;;;;;1.53;1.33;;;;;;;;;;4529412;28;20573;-63
2021/08/01 00:13:31;;;;;;;1.70;1.60;;;;;;;;;;4528754;28;20541;-63
2021/08/01 00:15:42;;;;;;;1.67;1.40;;;;;;;;;;4529880;28;20125;-63
2021/08/01 00:17:52;;;;;;;1.23;1.13;;;;;;;;;;4536387;28;20061;-63
2021/08/01 00:20:03;;;;;;;1.93;1.53;;;;;;;;;;4533052;28;20029;-63
2021/08/01 00:22:14;;;;;;;2.22;1.80;;;;;;;;;;4533111;28;20577;-63
2021/08/01 00:24:24;;;;;;;1.40;1.30;;;;;;;;;;4533207;28;20511;-63
2021/08/01 00:26:35;;;;;;;1.50;1.30;;;;;;;;;;4532962;28;20272;-63
2021/08/01 00:28:45;;;;;;;1.97;1.40;;;;;;;;;;4533395;28;20045;-63
2021/08/01 00:30:58;;;;;;;1.20;1.10;;;;;;;;;;4532018;28;20030;-63
2021/08/01 00:33:09;;;;;;;1.52;1.33;;;;;;;;;;4534094;28;20124;-63
2021/08/01 00:35:19;;;;;;;1.97;1.50;;;;;;;;;;4533347;28;20108;-63
2021/08/01 00:37:30;;;;;;;1.90;1.33;;;;;;;;;;4533976;28;20068;-63
2021/08/01 00:39:40;;;;;;;1.37;1.27;;;;;;;;;;4532815;28;20051;-63
2021/08/01 00:41:51;;;;;;;1.60;1.50;;;;;;;;;;4533456;28;20068;-63
2021/08/01 00:44:02;;;;;;;2.00;1.37;;;;;;;;;;4534354;28;20402;-65
2021/08/01 00:46:13;;;;;;;1.38;1.27;;;;;;;;;;4534801;28;20127;-63
2021/08/01 00:48:25;;;;;;;1.33;1.23;;;;;;;;;;4531244;28;20041;-63
2021/08/01 00:50:36;;;;;;;2.38;1.60;;;;;;;;;;4531062;28;20029;-63
2021/08/01 00:52:49;;;;;;;2.00;1.30;;;;;;;;;;4536740;28;20037;-63
2021/08/01 00:55:04;;;;;;;2.25;1.67;;;;;;;;;;4541041;28;20602;-63
2021/08/01 00:57:16;;;;;;;1.88;1.42;;;;;;;;;;4535855;28;20025;-63
2021/08/01 00:59:27;;;;;;;2.53;1.30;;;;;;;;;;4531883;28;20041;-62
2021/08/01 01:01:46;;;;;;;1.83;1.60;;;;;;;;;;4532188;28;20615;-63
2021/08/01 01:04:05;;;;;;;1.40;1.30;;;;;;;;;;4534555;28;20581;-63
2021/08/01 01:06:23;;;;;;;2.63;1.67;;;;;;;;;;4531818;28;20044;-63
2021/08/01 01:08:40;;;;;;;1.50;1.40;;;;;;;;;;4534467;28;20044;-63
2021/08/01 01:11:13;;;;;;;1.40;1.30;;;;;;;;;;4531367;28;20049;-62
2021/08/01 01:13:27;;;;;;;1.63;1.42;;;;;;;;;;4524243;28;20029;-63
2021/08/01 01:15:48;;;;;;;2.03;1.45;;;;;;;;;;4530220;28;20033;-63
2021/08/01 01:17:59;;;;;;;1.70;1.50;;;;;;;;;;4514807;28;20042;-63
2021/08/01 01:20:14;;;;;;;;;;;;;;;;;;4533848;28;20033;-62
2021/08/01 01:22:50;;;;;;;2.50;1.50;;;;;;;;;;4540094;28;20020;-63
2021/08/01 01:25:41;;;;;;;2.08;1.42;;;;;;;;;;4499067;28;20042;-64
2021/08/01 01:28:06;;;;;;;1.92;1.60;;;;;;;;;;4532480;28;20139;-62
2021/08/01 01:30:17;;;;;;;1.70;1.50;;;;;;;;;;4530112;28;20034;-62
2021/08/01 01:32:34;;;;;;;1.73;1.60;;;;;;;;;;4531212;28;20029;-62
2021/08/01 01:34:52;;;;;;;1.70;1.30;;;;;;;;;;4530564;28;20635;-62
2021/08/01 01:37:10;;;;;;;2.28;1.70;;;;;;;;;;4529747;28;20041;-62
2021/08/01 01:39:21;;;;;;;2.33;1.70;;;;;;;;;;4531275;28;20358;-62
2021/08/01 01:41:51;;;;;;;1.85;1.65;;;;;;;;;;4540506;28;20025;-63
2021/08/01 01:44:07;;;;;;;1.98;1.77;;;;;;;;;;4538957;28;20060;-62
2021/08/01 01:46:18;;;;;;;1.83;1.33;;;;;;;;;;4522206;28;20047;-62
2021/08/01 01:48:29;;;;;;;2.22;1.70;;;;;;;;;;4526863;28;20084;-62
2021/08/01 01:50:40;;;;;;;1.47;1.37;;;;;;;;;;4517553;28;20069;-62
2021/08/01 01:52:51;;;;;;;2.23;1.80;;;;;;;;;;4523877;28;20052;-62
2021/08/01 01:55:04;;;;;;;2.47;1.80;;;;;;;;;;4531324;28;20875;-62
2021/08/01 01:57:15;;;;;;;1.83;1.65;;;;;;;;;;4546868;28;20037;-62
2021/08/01 01:59:26;;;;;;;1.98;1.65;;;;;;;;;;4530828;28;20501;-62
2021/08/01 02:01:38;;;;;;;1.80;1.50;;;;;;;;;;4540379;28;20033;-62
2021/08/01 02:03:50;;;;;;;1.75;1.65;;;;;;;;;;4534787;28;20033;-62
2021/08/01 02:06:21;;;;;;;1.60;1.50;;;;;;;;;;4530721;28;20116;-62
2021/08/01 02:09:08;;;;;;;3.00;1.83;;;;;;;;;;4533440;28;20057;-62
2021/08/01 02:12:04;;;;;;;1.50;1.40;;;;;;;;;;4521373;28;20142;-62
2021/08/01 02:14:28;;;;;;;2.65;1.80;;;;;;;;;;4547057;28;20056;-62
2021/08/01 02:16:40;;;;;;;1.55;1.30;;;;;;;;;;4523116;28;20030;-62
2021/08/01 02:18:51;;;;;;;;;;;;;;;;;;4533414;28;20033;-62
2021/08/01 02:21:02;;;;;;;2.45;1.80;;;;;;;;;;4532617;28;19924;-62
2021/08/01 02:23:22;;;;;;;2.97;1.80;;;;;;;;;;4537338;28;20572;-62
2021/08/01 02:25:33;;;;;;;2.15;1.60;;;;;;;;;;4547025;28;20028;-62
2021/08/01 02:27:46;;;;;;;2.05;1.85;;;;;;;;;;4539766;28;20044;-62
2021/08/01 02:29:57;;;;;;;2.47;1.90;;;;;;;;;;4539550;28;20045;-62
2021/08/01 02:32:08;;;;;;;2.50;2.10;;;;;;;;;;4547100;28;20118;-62
2021/08/01 02:34:22;;;;;;;2.97;2.00;;;;;;;;;;4522102;28;20041;-62
2021/08/01 02:36:34;;;;;;;2.53;2.10;;;;;;;;;;4530919;28;20017;-62
2021/08/01 02:38:45;;;;;;;2.25;2.03;;;;;;;;;;4530282;28;21196;-62
2021/08/01 02:40:56;;;;;;;;;;;;;;;;;;4535027;28;20670;-62
2021/08/01 02:43:11;;;;;;;2.63;2.05;;;;;;;;;;4530964;28;19917;-62
2021/08/01 02:45:23;;;;;;;2.15;1.95;;;;;;;;;;4531214;28;20041;-63
2021/08/01 02:47:35;;;;;;;2.15;1.95;;;;;;;;;;4531702;28;20193;-62
2021/08/01 02:49:46;;;;;;;2.50;1.85;;;;;;;;;;4522719;28;20140;-62
2021/08/01 02:51:59;;;;;;;2.28;2.00;;;;;;;;;;4538292;28;20683;-62
2021/08/01 02:54:10;;;;;;;2.20;2.00;;;;;;;;;;4531230;28;20041;-62
2021/08/01 02:56:22;;;;;;;2.13;1.92;;;;;;;;;;4529825;28;20437;-62
2021/08/01 02:58:36;;;;;;;2.58;2.22;;;;;;;;;;4516136;28;20112;-62
2021/08/01 03:00:47;;;;;;;2.37;2.17;;;;;;;;;;4539936;28;20082;-62
2021/08/01 03:02:59;;;;;;;2.63;2.38;;;;;;;;;;4501105;28;20034;-62
2021/08/01 03:05:11;;;;;;;2.50;2.10;;;;;;;;;;4531889;28;20620;-62
2021/08/01 03:07:21;;;;;;;2.23;2.03;;;;;;;;;;4528266;28;20136;-62
2021/08/01 03:09:33;;;;;;;2.38;2.15;;;;;;;;;;4515760;28;20045;-62
2021/08/01 03:11:44;;;;;;;2.42;2.00;;;;;;;;;;4530355;28;20811;-62
2021/08/01 03:13:55;;;;;;;2.50;1.88;;;;;;;;;;4532446;28;20630;-62
2021/08/01 03:16:06;;;;;;;2.53;2.30;;;;;;;;;;4530500;28;20061;-62
2021/08/01 03:18:17;;;;;;;2.43;2.00;;;;;;;;;;4529396;28;20559;-62
2021/08/01 03:20:27;;;;;;;2.70;2.13;;;;;;;;;;4531785;28;20067;-63
2021/08/01 03:23:01;;;;;;;2.38;1.88;;;;;;;;;;4507617;28;20091;-62
2021/08/01 03:25:30;;;;;;;2.40;2.03;;;;;;;;;;4518327;28;20048;-62
2021/08/01 03:27:40;;;;;;;1.90;1.70;;;;;;;;;;4529824;28;20485;-62
2021/08/01 03:29:51;;;;;;;2.70;2.17;;;;;;;;;;4531303;28;20119;-62
2021/08/01 03:32:02;;;;;;;3.40;2.50;;;;;;;;;;4529866;28;20029;-62
2021/08/01 03:34:12;;;;;;;3.23;2.50;;;;;;;;;;4538792;28;20029;-62
2021/08/01 03:36:22;;;;;;;2.67;2.30;;;;;;;;;;4530807;28;20087;-62
2021/08/01 03:38:53;;;;;;;3.15;2.30;;;;;;;;;;4510619;28;20033;-62
2021/08/01 03:41:24;;;;;;;4.50;2.30;;;;;;;;;;4530473;28;20029;-62
2021/08/01 03:43:35;;;;;;;2.75;2.20;;;;;;;;;;4521756;28;20029;-62
2021/08/01 03:45:46;;;;;;;2.80;2.10;;;;;;;;;;4530006;28;20042;-62
2021/08/01 03:47:56;;;;;;;2.80;2.20;;;;;;;;;;4525544;28;20494;-63
2021/08/01 03:50:08;;;;;;;2.83;2.23;;;;;;;;;;4530923;28;20037;-63
2021/08/01 03:52:18;;;;;;;;;;;;;;;;;;4529280;28;20135;-62
2021/08/01 03:54:29;;;;;;;2.90;2.23;;;;;;;;;;4538463;28;20023;-62
2021/08/01 03:56:40;;;;;;;3.23;2.40;;;;;;;;;;4529262;28;20033;-62
2021/08/01 03:58:50;;;;;;;2.90;2.47;;;;;;;;;;4520705;28;20041;-62
2021/08/01 04:01:01;;;;;;;2.30;2.10;;;;;;;;;;4530489;28;20029;-63
2021/08/01 04:03:11;;;;;;;3.00;2.00;;;;;;;;;;4530311;28;20026;-63
2021/08/01 04:05:22;;;;;;;2.77;2.10;;;;;;;;;;4529451;28;20485;-63
2021/08/01 04:07:32;;;;;;;2.90;2.37;;;;;;;;;;4529955;28;20040;-62
2021/08/01 04:09:43;;;;;;;3.23;2.40;;;;;;;;;;4530725;28;20049;-62
2021/08/01 04:11:53;;;;;;;2.90;2.30;;;;;;;;;;4529974;28;20486;-64
2021/08/01 04:14:03;;;;;;;2.70;2.27;;;;;;;;;;4529523;28;21151;-62
2021/08/01 04:16:14;;;;;;;2.83;2.40;;;;;;;;;;4530997;28;20025;-63
2021/08/01 04:18:27;;;;;;;3.07;2.30;;;;;;;;;;4530498;28;20441;-62
2021/08/01 04:20:38;;;;;;;3.28;2.25;;;;;;;;;;4532150;28;20021;-63
2021/08/01 04:22:53;;;;;;;3.30;2.47;;;;;;;;;;4529337;28;20033;-63
2021/08/01 04:25:04;;;;;;;2.80;2.15;;;;;;;;;;4531145;28;20556;-62
2021/08/01 04:27:14;;;;;;;2.78;2.40;;;;;;;;;;4529721;28;21207;-63
2021/08/01 04:29:25;;;;;;;2.83;2.50;;;;;;;;;;4526698;28;20037;-62
2021/08/01 04:31:35;;;;;;;3.00;2.60;;;;;;;;;;4530415;28;20103;-62
2021/08/01 04:33:46;;;;;;;2.83;2.37;;;;;;;;;;4528452;28;20125;-62
2021/08/01 04:35:56;;;;;;;2.67;2.30;;;;;;;;;;4529440;28;20048;-62
2021/08/01 04:38:06;;;;;;;3.93;2.57;;;;;;;;;;4530551;28;20026;-63
2021/08/01 04:40:17;;;;;;;2.50;2.30;;;;;;;;;;4528541;28;20033;-62
2021/08/01 04:42:27;;;;;;;3.07;2.33;;;;;;;;;;4529990;28;20060;-62
2021/08/01 04:44:39;;;;;;;3.33;2.53;;;;;;;;;;4528803;28;20037;-63
2021/08/01 04:46:49;;;;;;;3.07;2.77;;;;;;;;;;4527443;28;20444;-63
2021/08/01 04:48:59;;;;;;;3.20;2.90;;;;;;;;;;4529119;28;20041;-62
2021/08/01 04:51:10;;;;;;;3.57;3.00;;;;;;;;;;4529305;28;20122;-62
2021/08/01 04:53:20;;;;;;;3.77;2.80;;;;;;;;;;4528526;28;20033;-62
2021/08/01 04:55:31;;;;;;;3.00;2.63;;;;;;;;;;4527866;28;20037;-62
2021/08/01 04:57:41;;;;;;;3.47;2.93;;;;;;;;;;4528663;28;20287;-62
2021/08/01 04:59:51;;;;;;;3.27;2.83;;;;;;;;;;4528948;28;20041;-62
2021/08/01 05:02:03;;;;;;;3.17;2.63;;;;;;;;;;4530606;28;20140;-62
2021/08/01 05:04:14;;;;;;;3.67;2.80;;;;;;;;;;4533744;28;20752;-62
2021/08/01 05:06:24;;;;;;;2.60;2.40;;;;;;;;;;4530287;28;20088;-62
2021/08/01 05:08:35;;;;;;;3.47;2.87;;;;;;;;;;4530856;28;20116;-62
2021/08/01 05:10:45;;;;;;;3.03;2.60;;;;;;;;;;4540640;28;20132;-62
2021/08/01 05:12:56;;;;;;;3.60;2.70;;;;;;;;;;4533128;28;20030;-62
2021/08/01 05:15:07;;;;;;;3.70;3.00;;;;;;;;;;4524707;28;20037;-62
2021/08/01 05:17:17;;;;;;;4.70;3.22;;;;;;;;;;4531792;28;20328;-62
2021/08/01 05:19:28;;;;;;;3.63;2.83;;;;;;;;;;4529655;28;21086;-63
2021/08/01 05:21:38;;;;;;;4.47;3.07;;;;;;;;;;4532507;28;20038;-62
2021/08/01 05:23:49;;;;;;;4.53;3.17;;;;;;;;;;4530535;28;20467;-62
2021/08/01 05:26:00;;;;;;;4.47;3.27;;;;;;;;;;4532362;28;20037;-62
2021/08/01 05:28:10;;;;;;;4.45;3.30;;;;;;;;;;4532245;28;20041;-62
2021/08/01 05:30:21;;;;;;;3.57;2.97;;;;;;;;;;4531184;28;20446;-62
2021/08/01 05:32:33;;;;;;;3.70;2.90;;;;;;;;;;4532761;28;20041;-62
2021/08/01 05:34:43;;;;;;;3.75;3.15;;;;;;;;;;4533564;28;20094;-62
2021/08/01 05:36:54;;;;;;;4.40;3.20;;;;;;;;;;4531305;28;20095;-62
2021/08/01 05:39:04;;;;;;;5.17;3.47;;;;;;;;;;4529673;28;22844;-62
2021/08/01 05:41:18;;;;;;;4.90;3.47;;;;;;;;;;4531511;28;20117;-62
2021/08/01 05:43:28;;;;;;;5.22;3.45;;;;;;;;;;4531565;28;20172;-62
2021/08/01 05:45:39;;;;;;;4.03;3.17;;;;;;;;;;4534098;28;20034;-62
2021/08/01 05:47:49;;;;;;;4.33;3.20;;;;;;;;;;4532606;28;20028;-62
2021/08/01 05:50:00;;;;;;;4.73;3.57;;;;;;;;;;4532421;28;20041;-62
2021/08/01 05:52:13;;;;;;;4.03;3.20;;;;;;;;;;4530368;28;20041;-62
2021/08/01 05:54:24;;;;;;;3.53;3.05;;;;;;;;;;4533233;28;20037;-62
2021/08/01 05:56:34;;;;;;;5.30;3.83;;;;;;;;;;4532736;28;20037;-62
2021/08/01 05:58:45;;;;;;;3.47;3.00;;;;;;;;;;4531086;28;20993;-62
2021/08/01 06:00:55;;;;;;;4.77;3.73;;;;;;;;;;4533998;28;20033;-62
2021/08/01 06:03:05;;;;;;;4.20;3.47;;;;;;;;;;4531648;28;20088;-62
2021/08/01 06:05:16;;;;;;;5.50;3.40;;;;;;;;;;4530705;28;20549;-63
2021/08/01 06:07:26;;;;;;;4.40;3.63;;;;;;;;;;4532269;28;20040;-64
2021/08/01 06:09:43;;;;;;;4.33;3.30;;;;;;;;;;4530507;28;20049;-63
2021/08/01 06:11:54;;;;;;;5.45;3.25;;;;;;;;;;4531162;28;21303;-63
2021/08/01 06:14:04;;;;;;;4.13;3.27;;;;;;;;;;4530767;28;20087;-63
2021/08/01 06:16:15;;;;;;;4.83;3.70;;;;;;;;;;4532458;28;20044;-63
2021/08/01 06:18:26;;;;;;;4.07;3.38;;;;;;;;;;4529522;28;20124;-63
2021/08/01 06:20:37;;;;;;;5.07;3.47;;;;;;;;;;4530311;28;20550;-63
2021/08/01 06:22:47;;;;;;;4.63;3.27;;;;;;;;;;4531153;28;20033;-63
2021/08/01 06:24:58;;;;;;;4.53;3.47;;;;;;;;;;4533948;28;20476;-63
2021/08/01 06:27:08;;;;;;;4.40;3.30;;;;;;;;;;4529530;28;20040;-63
2021/08/01 06:29:19;;;;;;;5.73;3.73;;;;;;;;;;4530877;28;20552;-63
2021/08/01 06:31:30;;;;;;;5.93;4.03;;;;;;;;;;4529738;28;20039;-63
2021/08/01 06:33:41;;;;;;;4.22;3.40;;;;;;;;;;4531613;28;20033;-62
2021/08/01 06:35:51;;;;;;;5.13;3.35;;;;;;;;;;4531440;28;20060;-63
2021/08/01 06:38:01;;;;;;;4.97;3.80;;;;;;;;;;4530403;28;20038;-63
2021/08/01 06:40:12;;;;;;;5.50;3.70;;;;;;;;;;4532899;28;20042;-63
2021/08/01 06:42:22;;;;;;;5.30;3.50;;;;;;;;;;4532149;28;20103;-63
2021/08/01 06:44:33;;;;;;;4.77;3.90;;;;;;;;;;4531047;28;20041;-63
2021/08/01 06:46:43;;;;;;;4.57;3.57;;;;;;;;;;4533322;28;20040;-63
2021/08/01 06:48:54;;;;;;;4.70;3.80;;;;;;;;;;4530334;28;20041;-63
2021/08/01 06:51:04;;;;;;;5.33;4.00;;;;;;;;;;4529612;28;20037;-63
2021/08/01 06:53:15;;;;;;;5.30;3.77;;;;;;;;;;4530687;28;20471;-63
2021/08/01 06:55:26;;;;;;;5.55;4.20;;;;;;;;;;4530119;28;20038;-63
2021/08/01 06:57:36;;;;;;;5.40;3.80;;;;;;;;;;4531758;28;20037;-63
2021/08/01 06:59:47;;;;;;;4.83;3.83;;;;;;;;;;4531723;28;20034;-63
2021/08/01 07:01:57;;;;;;;5.30;3.90;;;;;;;;;;4530694;28;20040;-62
2021/08/01 07:04:08;;;;;;;6.10;4.07;;;;;;;;;;4530959;28;20119;-63
2021/08/01 07:06:18;;;;;;;6.13;4.30;;;;;;;;;;4530285;28;20029;-63
2021/08/01 07:08:28;;;;;;;5.87;4.00;;;;;;;;;;4531379;28;20386;-63
2021/08/01 07:10:39;;;;;;;5.10;3.70;;;;;;;;;;4530808;28;20037;-63
2021/08/01 07:12:50;;;;;;;5.37;3.97;;;;;;;;;;4530038;28;20037;-62
2021/08/01 07:15:01;;;;;;;5.45;3.90;;;;;;;;;;4529320;28;20072;-62
2021/08/01 07:17:11;;;;;;;5.97;3.93;;;;;;;;;;4531205;28;20473;-62
2021/08/01 07:19:22;;;;;;;6.57;4.33;;;;;;;;;;4532805;28;20037;-63
2021/08/01 07:21:33;;;;;;;5.15;3.95;;;;;;;;;;4529137;28;20037;-63
2021/08/01 07:23:43;;;;;;;5.70;3.93;;;;;;;;;;4530251;28;20033;-63
2021/08/01 07:25:54;;;;;;;4.70;3.50;;;;;;;;;;4530317;28;20476;-63
2021/08/01 07:28:04;;;;;;;5.93;4.13;;;;;;;;;;4530770;28;20033;-63
2021/08/01 07:30:15;;;;;;;6.10;4.23;;;;;;;;;;4530703;28;20056;-63
2021/08/01 07:32:25;;;;;;;6.13;4.27;;;;;;;;;;4529946;28;20061;-62
2021/08/01 07:34:36;;;;;;;6.13;4.33;;;;;;;;;;4531215;28;20044;-62
2021/08/01 07:36:47;;;;;;;6.20;4.23;;;;;;;;;;4529445;28;20088;-62
2021/08/01 07:38:57;;;;;;;6.90;4.78;;;;;;;;;;4531002;28;20040;-62
2021/08/01 07:41:08;;;;;;;5.53;4.03;;;;;;;;;;4529262;28;20044;-63
2021/08/01 07:43:18;;;;;;;5.83;4.57;;;;;;;;;;4529485;28;20820;-63
2021/08/01 07:45:34;;;;;;;6.07;4.13;;;;;;;;;;4529329;28;20060;-63
2021/08/01 07:47:44;;;;;;;5.18;4.22;;;;;;;;;;4537708;28;20048;-63
2021/08/01 07:49:54;;;;;;;6.30;4.47;;;;;;;;;;4528370;28;20048;-62
2021/08/01 07:52:05;;;;;;;5.27;3.80;;;;;;;;;;4531691;28;20032;-63
2021/08/01 07:54:15;;;;;;;5.97;4.27;;;;;;;;;;4532635;28;20394;-62
2021/08/01 07:56:26;;;;;;;3.70;3.30;;;;;;;;;;4532146;28;20280;-63
2021/08/01 07:58:36;;;;;;;4.47;3.87;;;;;;;;;;4530675;28;20021;-63
2021/08/01 08:00:47;;;;;;;5.40;4.10;;;;;;;;;;4529147;28;20091;-63
2021/08/01 08:02:57;;;;;;;5.10;3.90;;;;;;;;;;4530245;28;20035;-63
2021/08/01 08:05:08;;;;;;;5.17;4.53;;;;;;;;;;4515202;28;20450;-63
2021/08/01 08:07:19;;;;;;;5.75;4.43;;;;;;;;;;4531718;28;20037;-63
2021/08/01 08:09:30;;;;;;;7.22;4.60;;;;;;;;;;4528971;28;20041;-63
2021/08/01 08:11:40;;;;;;;5.73;4.20;;;;;;;;;;4529775;28;20049;-62
2021/08/01 08:13:51;;;;;;;5.57;4.30;;;;;;;;;;4537085;28;20041;-62
2021/08/01 08:16:01;;;;;;;5.50;4.23;;;;;;;;;;4530857;28;20038;-63
2021/08/01 08:18:12;;;;;;;5.73;4.57;;;;;;;;;;4530618;28;20034;-63
2021/08/01 08:20:22;;;;;;;6.40;4.77;;;;;;;;;;4529659;28;20045;-64
2021/08/01 08:22:33;;;;;;;5.50;4.67;;;;;;;;;;4529381;28;20029;-63
2021/08/01 08:24:43;;;;;;;5.43;4.60;;;;;;;;;;4528274;28;20498;-64
2021/08/01 08:26:54;;;;;;;5.10;4.30;;;;;;;;;;4528897;28;20047;-64
2021/08/01 08:29:04;;;;;;;5.20;4.03;;;;;;;;;;4528738;28;20041;-63
2021/08/01 08:31:15;;;;;;;4.83;4.07;;;;;;;;;;4527330;28;20413;-63
2021/08/01 08:33:25;;;;;;;4.90;3.80;;;;;;;;;;4527042;28;20080;-63
2021/08/01 08:35:36;;;;;;;5.13;4.23;;;;;;;;;;4528337;28;20084;-64
2021/08/01 08:37:47;;;;;;;4.43;3.97;;;;;;;;;;4529591;28;20072;-64
2021/08/01 08:39:58;;;;;;;5.30;3.90;;;;;;;;;;4539883;28;20103;-63
2021/08/01 08:42:08;;;;;;;4.70;3.97;;;;;;;;;;4532464;28;20091;-64
2021/08/01 08:44:19;;;;;;;4.27;3.60;;;;;;;;;;4531481;28;20033;-63
2021/08/01 08:46:29;;;;;;;4.70;3.77;;;;;;;;;;4532779;28;20029;-63
2021/08/01 08:48:40;;;;;;;4.93;3.90;;;;;;;;;;4531308;28;20037;-63
2021/08/01 08:50:53;;;;;;;4.85;3.90;;;;;;;;;;4530281;28;21262;-64
2021/08/01 08:53:06;;;;;;;4.60;3.60;;;;;;;;;;4533069;28;20706;-63
2021/08/01 08:55:17;;;;;;;5.55;3.58;;;;;;;;;;4532911;28;20573;-64
2021/08/01 08:57:29;;;;;;;5.07;3.40;;;;;;;;;;4532774;28;20042;-63
2021/08/01 08:59:40;;;;;;;4.63;3.30;;;;;;;;;;4529517;28;20044;-64
2021/08/01 09:01:50;;;;;;;4.67;3.47;;;;;;;;;;4532198;28;20048;-63
2021/08/01 09:04:01;;;;;;;3.30;2.97;;;;;;;;;;4532119;28;20077;-63
2021/08/01 09:06:11;;;;;;;3.73;2.93;;;;;;;;;;4532248;28;20041;-64
2021/08/01 09:08:23;;;;;;;4.83;3.03;;;;;;;;;;4531459;28;20770;-63
2021/08/01 09:10:34;;;;;;;2.92;2.60;;;;;;;;;;4529950;28;20041;-64
2021/08/01 09:12:44;;;;;;;3.78;2.95;;;;;;;;;;4532715;28;20041;-64
2021/08/01 09:15:28;;;;;;;4.33;2.90;;;;;;;;;;4532917;28;20037;-63
2021/08/01 09:17:40;;;;;;;3.78;2.97;;;;;;;;;;4487047;28;20828;-63
2021/08/01 09:19:53;;;;;;;4.25;2.80;;;;;;;;;;4530685;28;20597;-63
2021/08/01 09:22:13;;;;;;;3.00;2.42;;;;;;;;;;4534379;28;20044;-63
2021/08/01 09:24:32;;;;;;;3.85;2.75;;;;;;;;;;4532915;28;20120;-64
2021/08/01 09:26:45;;;;;;;3.25;2.63;;;;;;;;;;4536565;28;20099;-63
2021/08/01 09:29:04;;;;;;;4.07;2.67;;;;;;;;;;4529437;28;20037;-63
2021/08/01 09:31:18;;;;;;;3.15;2.15;;;;;;;;;;4528498;28;20068;-63
2021/08/01 09:33:53;;;;;;;3.03;2.15;;;;;;;;;;4530902;28;20037;-63
2021/08/01 09:36:10;;;;;;;1.95;1.73;;;;;;;;;;4529690;28;20033;-64
2021/08/01 09:38:21;;;;;;;2.95;1.90;;;;;;;;;;4531637;28;20034;-63
2021/08/01 09:40:33;;;;;;;2.00;1.70;;;;;;;;;;4532638;28;20021;-64
2021/08/01 09:42:47;;;;;;;1.90;1.75;;;;;;;;;;4528150;28;21055;-63
2021/08/01 09:45:11;;;;;;;1.90;1.70;;;;;;;;;;4532206;28;20045;-63
2021/08/01 09:47:24;;;;;;;1.65;1.55;;;;;;;;;;4532299;28;20033;-63
2021/08/01 09:49:35;;;;;;;2.15;1.85;;;;;;;;;;4530227;28;20116;-63
2021/08/01 09:51:47;;;;;;;2.57;1.60;;;;;;;;;;4530421;28;20044;-64
2021/08/01 09:53:58;;;;;;;1.88;1.77;;;;;;;;;;4530094;28;20029;-63
2021/08/01 09:56:09;;;;;;;2.33;1.75;;;;;;;;;;4531209;28;20502;-63
2021/08/01 09:58:33;;;;;;;2.72;1.98;;;;;;;;;;4531860;28;20120;-63
2021/08/01 10:01:00;;;;;;;2.00;1.70;;;;;;;;;;4531585;28;20033;-64
2021/08/01 10:03:36;;;;;;;2.00;1.80;;;;;;;;;;4517143;28;20068;-63
2021/08/01 10:06:06;;;;;;;2.10;1.90;;;;;;;;;;4539846;28;20033;-63
2021/08/01 10:08:34;;;;;;;2.30;1.90;;;;;;;;;;4530765;28;20033;-63
2021/08/01 10:10:44;;;;;;;2.10;1.90;;;;;;;;;;4532474;28;20041;-64
2021/08/01 10:12:59;;;;;;;2.33;1.90;;;;;;;;;;4529996;28;20033;-63
2021/08/01 10:15:10;;;;;;;2.00;1.60;;;;;;;;;;4530762;28;21003;-64
2021/08/01 10:17:22;;;;;;;1.55;1.40;;;;;;;;;;4529669;28;20091;-64
2021/08/01 10:19:33;;;;;;;1.70;1.30;;;;;;;;;;4530864;28;20535;-63
2021/08/01 10:21:45;;;;;;;2.28;1.50;;;;;;;;;;4519004;28;20029;-63
2021/08/01 10:23:57;;;;;;;2.05;1.40;;;;;;;;;;4529251;28;20064;-64
2021/08/01 10:26:09;;;;;;;1.55;1.33;;;;;;;;;;4533601;28;20033;-63
2021/08/01 10:28:20;;;;;;;;;;;;;;;;;;4531788;28;20627;-63
2021/08/01 10:30:31;;;;;;;2.03;1.52;;;;;;;;;;4531373;28;19921;-63
2021/08/01 10:32:43;;;;;;;1.92;1.60;;;;;;;;;;4531885;28;20966;-64
2021/08/01 10:35:08;;;;;;;1.70;1.30;;;;;;;;;;4532374;28;20136;-64
2021/08/01 10:37:23;;;;;;;1.77;1.42;;;;;;;;;;4532596;28;20117;-64
2021/08/01 10:39:35;;;;;;;2.08;1.38;;;;;;;;;;4531800;28;20052;-63
2021/08/01 10:41:46;;;;;;;1.95;1.30;;;;;;;;;;4531481;28;20789;-63
2021/08/01 10:44:05;;;;;;;1.37;1.27;;;;;;;;;;4531602;28;20040;-63
2021/08/01 10:46:19;;;;;;;1.75;1.55;;;;;;;;;;4530199;28;20042;-63
2021/08/01 10:48:30;;;;;;;1.30;1.00;;;;;;;;;;4529411;28;21676;-63
2021/08/01 10:50:41;;;;;;;1.42;1.33;;;;;;;;;;4504617;28;20034;-63
2021/08/01 10:53:29;;;;;;;1.75;1.35;;;;;;;;;;4528344;28;20037;-64
2021/08/01 10:55:40;;;;;;;1.75;1.30;;;;;;;;;;4531104;28;20040;-63
2021/08/01 10:58:10;;;;;;;2.47;1.37;;;;;;;;;;4529803;28;20088;-63
2021/08/01 11:00:21;;;;;;;1.43;1.30;;;;;;;;;;4531672;28;20042;-64
2021/08/01 11:02:33;;;;;;;1.50;1.30;;;;;;;;;;4532367;28;20486;-63
2021/08/01 11:04:46;;;;;;;2.33;1.50;;;;;;;;;;4530254;28;20065;-63
2021/08/01 11:06:56;;;;;;;1.73;1.30;;;;;;;;;;4533312;28;20114;-64
2021/08/01 11:09:10;;;;;;;1.30;1.20;;;;;;;;;;4530481;28;26099;-63
2021/08/01 11:11:21;;;;;;;1.55;1.10;;;;;;;;;;4532499;28;20095;-63
2021/08/01 11:13:31;;;;;;;1.20;1.10;;;;;;;;;;4529962;28;20060;-63
2021/08/01 11:15:44;;;;;;;1.73;1.07;;;;;;;;;;4530828;28;20499;-63
2021/08/01 11:18:05;;;;;;;1.50;1.40;;;;;;;;;;4528133;28;20076;-63
2021/08/01 11:20:15;;;;;;;1.10;0.90;;;;;;;;;;4531304;28;20029;-63
2021/08/01 11:22:38;;;;;;;1.60;1.10;;;;;;;;;;4530474;28;20040;-63
2021/08/01 11:25:22;;;;;;;1.67;1.17;;;;;;;;;;4529716;28;20610;-63
2021/08/01 11:27:33;;;;;;;1.67;0.90;;;;;;;;;;4530082;28;20032;-63
2021/08/01 11:30:02;;;;;;;2.00;1.10;;;;;;;;;;4530100;28;20073;-63
2021/08/01 11:32:13;;;;;;;1.05;0.95;;;;;;;;;;4528707;28;20040;-63
2021/08/01 11:34:24;;;;;;;1.80;1.17;;;;;;;;;;4529612;28;20044;-63
2021/08/01 11:36:34;;;;;;;1.57;1.20;;;;;;;;;;4532832;28;20045;-63
2021/08/01 11:38:48;;;;;;;1.67;1.13;;;;;;;;;;4516385;28;20030;-63
2021/08/01 11:40:58;;;;;;;0.95;0.93;;;;;;;;;;4529487;28;20132;-63
2021/08/01 11:43:09;;;;;;;2.57;1.10;;;;;;;;;;4528973;28;20133;-63
2021/08/01 11:45:19;;;;;;;1.90;1.23;;;;;;;;;;4528178;28;20038;-63
2021/08/01 11:47:41;;;;;;;3.27;1.30;;;;;;;;;;4533065;28;20139;-63
2021/08/01 11:49:52;;;;;;;1.88;1.05;;;;;;;;;;4532047;28;20048;-63
2021/08/01 11:52:05;;;;;;;1.20;1.10;;;;;;;;;;4538371;28;20595;-63
2021/08/01 11:54:16;;;;;;;2.67;1.00;;;;;;;;;;4530326;28;20041;-63
2021/08/01 11:56:26;;;;;;;;;;;;;;;;;;4531259;28;20029;-63
2021/08/01 11:58:37;;;;;;;1.33;1.20;;;;;;;;;;4530087;28;19917;-63
2021/08/01 12:00:50;;;;;;;1.37;1.10;;;;;;;;;;4529823;28;20040;-63
2021/08/01 12:03:00;;;;;;;1.25;1.10;;;;;;;;;;4533013;28;21017;-63
2021/08/01 12:05:11;;;;;;;1.60;1.03;;;;;;;;;;4529646;28;20850;-63
2021/08/01 12:07:22;;;;;;;1.00;0.90;;;;;;;;;;4532252;28;20083;-63
2021/08/01 12:09:38;;;;;;;2.15;1.13;;;;;;;;;;4527555;28;20045;-62
2021/08/01 12:11:55;;;;;;;1.20;1.00;;;;;;;;;;4529746;28;20478;-63
2021/08/01 12:14:06;;;;;;;1.45;1.10;;;;;;;;;;4530209;28;20115;-63
2021/08/01 12:16:20;;;;;;;;;;;;;;;;;;4513631;28;20037;-62
2021/08/01 12:18:31;;;;;;;1.95;0.80;;;;;;;;;;4531694;28;19920;-63
2021/08/01 12:20:41;;;;;;;1.40;1.00;;;;;;;;;;4536506;28;20041;-63
2021/08/01 12:22:52;;;;;;;1.47;0.83;;;;;;;;;;4530305;28;20033;-64
2021/08/01 12:25:05;;;;;;;1.60;1.20;;;;;;;;;;4529339;28;20452;-63
2021/08/01 12:27:22;;;;;;;1.10;0.75;;;;;;;;;;4530545;28;20040;-63
2021/08/01 12:29:42;;;;;;;1.60;1.17;;;;;;;;;;4531775;28;20585;-63
2021/08/01 12:31:53;;;;;;;2.13;1.40;;;;;;;;;;4521052;28;20166;-63
2021/08/01 12:34:04;;;;;;;1.70;1.20;;;;;;;;;;4520705;28;20874;-63
2021/08/01 12:36:24;;;;;;;1.67;1.23;;;;;;;;;;4528009;28;20048;-63
2021/08/01 12:38:35;;;;;;;1.10;1.00;;;;;;;;;;4529402;28;20268;-63
2021/08/01 12:40:45;;;;;;;1.50;1.20;;;;;;;;;;4530275;28;20539;-63
2021/08/01 12:43:04;;;;;;;1.63;1.13;;;;;;;;;;4529922;28;20041;-64
2021/08/01 12:45:14;;;;;;;0.95;0.93;;;;;;;;;;4528225;28;20033;-63
2021/08/01 12:47:27;;;;;;;1.30;1.20;;;;;;;;;;4529160;28;20038;-63
2021/08/01 12:49:37;;;;;;;2.40;1.20;;;;;;;;;;4531758;28;20041;-63
2021/08/01 12:51:47;;;;;;;1.57;1.07;;;;;;;;;;4529773;28;20398;-63
2021/08/01 12:53:59;;;;;;;1.97;1.20;;;;;;;;;;4517414;28;20041;-63
2021/08/01 12:56:10;;;;;;;;;;;;;;;;;;4531966;28;20186;-62
2021/08/01 12:58:33;;;;;;;1.43;1.20;;;;;;;;;;4529354;28;19988;-63
2021/08/01 13:00:53;;;;;;;1.95;1.10;;;;;;;;;;4528957;28;20041;-63
2021/08/01 13:03:05;;;;;;;0.90;0.80;;;;;;;;;;4529591;28;20040;-62
2021/08/01 13:05:20;;;;;;;2.00;0.90;;;;;;;;;;4531198;28;20037;-63
2021/08/01 13:07:45;;;;;;;1.95;0.90;;;;;;;;;;4514421;28;20037;-63
2021/08/01 13:10:03;;;;;;;0.82;0.80;;;;;;;;;;4529130;28;20033;-63
2021/08/01 13:12:15;;;;;;;1.55;1.13;;;;;;;;;;4528056;28;20038;-63
2021/08/01 13:14:32;;;;;;;1.98;1.13;;;;;;;;;;4528131;28;20044;-63
2021/08/01 13:16:49;;;;;;;1.15;1.05;;;;;;;;;;4528902;28;20032;-63
2021/08/01 13:19:13;;;;;;;2.03;0.90;;;;;;;;;;4527750;28;20828;-63
2021/08/01 13:21:23;;;;;;;1.25;1.00;;;;;;;;;;4531956;28;20167;-63